createdAt,value
2016-10-24T00:00:24.431Z,20
2016-10-24T00:01:24.410Z,19.95
2016-10-24T00:02:24.389Z,19.98
2016-10-24T00:03:24.375Z,19.98
2016-10-24T00:04:24.366Z,19.92
2016-10-24T00:05:24.341Z,19.98
2016-10-24T00:06:24.324Z,19.94
2016-10-24T00:07:24.313Z,19.89
2016-10-24T00:08:24.287Z,19.97
2016-10-24T00:09:24.297Z,19.92
2016-10-24T00:10:23.955Z,19.92
2016-10-24T00:11:24.248Z,19.89
2016-10-24T00:12:23.920Z,19.97
2016-10-24T00:13:24.245Z,19.9
2016-10-24T00:14:24.192Z,19.87
2016-10-24T00:15:24.191Z,19.83
2016-10-24T00:16:24.164Z,19.86
2016-10-24T00:17:24.142Z,19.89
2016-10-24T00:18:23.814Z,19.98
2016-10-24T00:19:24.111Z,19.86
2016-10-24T00:20:23.776Z,19.85
2016-10-24T00:21:24.081Z,19.85
2016-10-24T00:22:23.753Z,19.82
2016-10-24T00:23:24.048Z,19.92
2016-10-24T00:24:24.025Z,19.83
2016-10-24T00:25:24.016Z,19.86
2016-10-24T00:26:23.998Z,19.86
2016-10-24T00:27:23.985Z,19.87
2016-10-24T00:28:23.960Z,19.89
2016-10-24T00:29:23.959Z,19.79
2016-10-24T00:30:23.946Z,19.95
2016-10-24T00:31:23.923Z,19.87
2016-10-24T00:32:23.893Z,19.83
2016-10-24T00:33:23.886Z,19.82
2016-10-24T00:34:23.867Z,19.85
2016-10-24T00:35:23.845Z,19.83
2016-10-24T00:36:23.837Z,19.85
2016-10-24T00:37:23.497Z,19.82
2016-10-24T00:38:23.796Z,19.82
2016-10-24T00:39:23.786Z,19.75
2016-10-24T00:40:23.775Z,19.78
2016-10-24T00:41:23.434Z,19.79
2016-10-24T00:42:23.739Z,19.78
2016-10-24T00:43:23.716Z,19.76
2016-10-24T00:44:23.705Z,19.78
2016-10-24T00:45:23.687Z,19.82
2016-10-24T00:46:23.678Z,19.78
2016-10-24T00:47:23.655Z,19.82
2016-10-24T00:48:23.636Z,19.79
2016-10-24T00:49:23.630Z,19.8
2016-10-24T00:50:23.601Z,19.79
2016-10-24T00:51:23.596Z,19.78
2016-10-24T00:52:23.575Z,19.72
2016-10-24T00:53:23.559Z,19.79
2016-10-24T00:54:23.534Z,19.76
2016-10-24T00:55:23.523Z,19.76
2016-10-24T00:56:23.507Z,19.79
2016-10-24T00:57:23.483Z,19.75
2016-10-24T00:58:23.468Z,19.76
2016-10-24T00:59:23.455Z,19.76
2016-10-24T01:00:23.445Z,19.72
2016-10-24T01:01:23.112Z,19.8
2016-10-24T01:02:23.407Z,19.71
2016-10-24T01:03:23.387Z,19.64
2016-10-24T01:04:23.381Z,19.68
2016-10-24T01:05:23.355Z,19.68
2016-10-24T01:06:23.339Z,19.76
2016-10-24T01:07:23.323Z,19.68
2016-10-24T01:08:23.307Z,19.7
2016-10-24T01:09:23.298Z,19.65
2016-10-24T01:10:23.279Z,19.7
2016-10-24T01:11:23.257Z,19.78
2016-10-24T01:12:22.923Z,19.65
2016-10-24T01:13:23.233Z,19.76
2016-10-24T01:14:23.205Z,19.62
2016-10-24T01:15:22.561Z,19.62
2016-10-24T01:16:22.855Z,19.71
2016-10-24T01:17:23.156Z,19.68
2016-10-24T01:18:22.827Z,19.67
2016-10-24T01:19:23.124Z,19.71
2016-10-24T01:20:23.148Z,19.67
2016-10-24T01:21:23.093Z,19.68
2016-10-24T01:22:23.078Z,19.68
2016-10-24T01:23:23.063Z,19.61
2016-10-24T01:24:23.041Z,19.64
2016-10-24T01:25:22.704Z,19.64
2016-10-24T01:26:23.010Z,19.71
2016-10-24T01:27:22.992Z,19.62
2016-10-24T01:28:22.662Z,19.64
2016-10-24T01:29:22.963Z,19.71
2016-10-24T01:30:22.944Z,19.64
2016-10-24T01:31:22.619Z,19.78
2016-10-24T01:32:22.910Z,19.71
2016-10-24T01:33:22.898Z,19.7
2016-10-24T01:34:22.875Z,19.67
2016-10-24T01:35:22.545Z,19.61
2016-10-24T01:36:22.848Z,19.68
2016-10-24T01:37:22.829Z,19.64
2016-10-24T01:38:22.812Z,19.61
2016-10-24T01:39:22.795Z,19.72
2016-10-24T01:40:22.484Z,19.67
2016-10-24T01:41:22.448Z,19.62
2016-10-24T01:42:22.751Z,19.67
2016-10-24T01:43:22.729Z,19.65
2016-10-24T01:44:22.712Z,19.58
2016-10-24T01:45:22.697Z,19.58
2016-10-24T01:46:22.678Z,19.71
2016-10-24T01:47:22.044Z,19.64
2016-10-24T01:48:22.329Z,19.71
2016-10-24T01:49:22.624Z,19.62
2016-10-24T01:50:22.613Z,19.58
2016-10-24T01:51:22.601Z,19.64
2016-10-24T01:52:22.578Z,19.57
2016-10-24T01:53:22.251Z,19.62
2016-10-24T01:54:22.552Z,19.62
2016-10-24T01:55:22.527Z,19.65
2016-10-24T01:56:22.513Z,19.62
2016-10-24T01:57:22.180Z,19.62
2016-10-24T01:58:22.487Z,19.57
2016-10-24T01:59:22.466Z,19.64
2016-10-24T02:00:22.449Z,19.61
2016-10-24T02:01:22.470Z,19.61
2016-10-24T02:02:22.107Z,19.62
2016-10-24T02:03:22.397Z,19.64
2016-10-24T02:04:22.380Z,19.61
2016-10-24T02:05:22.051Z,19.58
2016-10-24T02:06:22.350Z,19.65
2016-10-24T02:07:22.334Z,19.57
2016-10-24T02:08:22.315Z,19.57
2016-10-24T02:09:22.308Z,19.61
2016-10-24T02:10:22.283Z,19.6
2016-10-24T02:11:21.953Z,19.62
2016-10-24T02:12:22.251Z,19.62
2016-10-24T02:13:21.915Z,19.61
2016-10-24T02:14:22.216Z,19.64
2016-10-24T02:15:22.199Z,19.62
2016-10-24T02:16:22.182Z,19.6
2016-10-24T02:17:22.180Z,19.6
2016-10-24T02:18:22.155Z,19.61
2016-10-24T02:19:22.138Z,19.62
2016-10-24T02:20:22.121Z,19.62
2016-10-24T02:21:22.106Z,19.62
2016-10-24T02:22:21.769Z,19.68
2016-10-24T02:23:22.070Z,19.53
2016-10-24T02:24:22.052Z,19.53
2016-10-24T02:25:22.035Z,19.55
2016-10-24T02:26:21.706Z,19.6
2016-10-24T02:27:21.995Z,19.6
2016-10-24T02:28:21.986Z,19.53
2016-10-24T02:29:21.967Z,19.55
2016-10-24T02:30:21.958Z,19.6
2016-10-24T02:31:21.944Z,19.57
2016-10-24T02:32:21.923Z,19.55
2016-10-24T02:33:21.906Z,19.57
2016-10-24T02:34:21.891Z,19.6
2016-10-24T02:35:21.870Z,19.6
2016-10-24T02:36:21.854Z,19.55
2016-10-24T02:37:21.833Z,19.57
2016-10-24T02:38:21.830Z,19.57
2016-10-24T02:39:21.491Z,19.57
2016-10-24T02:40:21.794Z,19.55
2016-10-24T02:41:21.781Z,19.55
2016-10-24T02:42:21.755Z,19.57
2016-10-24T02:43:21.740Z,19.53
2016-10-24T02:44:21.403Z,19.57
2016-10-24T02:45:21.394Z,19.52
2016-10-24T02:46:21.689Z,19.53
2016-10-24T02:47:21.355Z,19.52
2016-10-24T02:48:21.656Z,19.6
2016-10-24T02:49:21.327Z,19.53
2016-10-24T02:50:21.620Z,19.52
2016-10-24T02:51:21.601Z,19.52
2016-10-24T02:52:21.276Z,19.53
2016-10-24T02:53:21.568Z,19.55
2016-10-24T02:54:21.565Z,19.57
2016-10-24T02:55:21.230Z,19.6
2016-10-24T02:56:21.215Z,19.53
2016-10-24T02:57:21.510Z,19.55
2016-10-24T02:58:21.499Z,19.57
2016-10-24T02:59:21.160Z,19.43
2016-10-24T03:00:21.142Z,19.43
2016-10-24T03:01:21.440Z,19.43
2016-10-24T03:02:21.420Z,19.42
2016-10-24T03:03:21.407Z,19.43
2016-10-24T03:04:21.386Z,19.52
2016-10-24T03:05:21.377Z,19.49
2016-10-24T03:06:21.364Z,19.39
2016-10-24T03:07:21.342Z,19.4
2016-10-24T03:08:21.325Z,19.43
2016-10-24T03:09:20.994Z,19.57
2016-10-24T03:10:21.302Z,19.52
2016-10-24T03:11:21.272Z,19.42
2016-10-24T03:12:21.262Z,19.43
2016-10-24T03:13:20.925Z,19.47
2016-10-24T03:14:21.227Z,19.52
2016-10-24T03:15:21.209Z,19.47
2016-10-24T03:16:21.188Z,19.42
2016-10-24T03:17:20.872Z,19.47
2016-10-24T03:18:21.155Z,19.4
2016-10-24T03:19:21.142Z,19.46
2016-10-24T03:20:21.125Z,19.49
2016-10-24T03:21:21.114Z,19.46
2016-10-24T03:22:21.097Z,19.46
2016-10-24T03:23:21.081Z,19.45
2016-10-24T03:24:20.744Z,19.49
2016-10-24T03:25:21.050Z,19.46
2016-10-24T03:26:21.024Z,19.42
2016-10-24T03:27:20.693Z,19.46
2016-10-24T03:28:20.674Z,19.49
2016-10-24T03:29:20.664Z,19.42
2016-10-24T03:30:20.961Z,19.45
2016-10-24T03:31:20.944Z,19.45
2016-10-24T03:32:20.924Z,19.5
2016-10-24T03:33:20.916Z,19.46
2016-10-24T03:34:20.904Z,19.4
2016-10-24T03:35:20.879Z,19.39
2016-10-24T03:36:20.870Z,19.43
2016-10-24T03:37:20.840Z,19.49
2016-10-24T03:38:20.510Z,19.45
2016-10-24T03:39:20.816Z,19.43
2016-10-24T03:40:20.793Z,19.46
2016-10-24T03:41:20.776Z,19.43
2016-10-24T03:42:20.759Z,19.39
2016-10-24T03:43:20.760Z,19.46
2016-10-24T03:44:20.731Z,19.45
2016-10-24T03:45:20.716Z,19.38
2016-10-24T03:46:20.694Z,19.49
2016-10-24T03:47:20.367Z,19.42
2016-10-24T03:48:20.661Z,19.49
2016-10-24T03:49:20.645Z,19.46
2016-10-24T03:50:20.626Z,19.46
2016-10-24T03:51:20.614Z,19.34
2016-10-24T03:52:20.596Z,19.28
2016-10-24T03:53:20.260Z,19.43
2016-10-24T03:54:20.559Z,19.42
2016-10-24T03:55:20.546Z,19.42
2016-10-24T03:56:20.528Z,19.39
2016-10-24T03:57:20.512Z,19.43
2016-10-24T03:58:20.491Z,19.4
2016-10-24T03:59:20.475Z,19.42
2016-10-24T04:00:20.462Z,19.32
2016-10-24T04:01:20.452Z,19.28
2016-10-24T04:02:20.109Z,19.43
2016-10-24T04:03:20.100Z,19.34
2016-10-24T04:04:20.399Z,19.4
2016-10-24T04:05:20.062Z,19.47
2016-10-24T04:06:20.367Z,19.57
2016-10-24T04:07:20.343Z,19.6
2016-10-24T04:08:20.332Z,19.68
2016-10-24T04:09:20.315Z,19.68
2016-10-24T04:10:20.291Z,19.86
2016-10-24T04:11:20.276Z,19.86
2016-10-24T04:12:20.261Z,19.86
2016-10-24T04:13:20.252Z,19.92
2016-10-24T04:14:20.228Z,19.92
2016-10-24T04:15:20.218Z,20.08
2016-10-24T04:16:19.882Z,20.1
2016-10-24T04:17:19.883Z,20.17
2016-10-24T04:18:20.160Z,20.2
2016-10-24T04:19:20.145Z,20.22
2016-10-24T04:20:20.129Z,20.17
2016-10-24T04:21:20.110Z,20.33
2016-10-24T04:22:20.094Z,20.27
2016-10-24T04:23:20.078Z,20.33
2016-10-24T04:24:20.065Z,20.37
2016-10-24T04:25:19.729Z,20.35
2016-10-24T04:26:19.766Z,20.37
2016-10-24T04:27:20.017Z,20.37
2016-10-24T04:28:19.684Z,20.37
2016-10-24T04:29:19.981Z,20.38
2016-10-24T04:30:19.961Z,20.41
2016-10-24T04:31:19.954Z,20.44
2016-10-24T04:32:19.615Z,20.31
2016-10-24T04:33:19.606Z,20.4
2016-10-24T04:34:19.901Z,20.35
2016-10-24T04:35:19.881Z,20.37
2016-10-24T04:36:19.871Z,20.35
2016-10-24T04:37:19.854Z,20.38
2016-10-24T04:38:19.850Z,20.38
2016-10-24T04:39:19.815Z,20.34
2016-10-24T04:40:19.814Z,20.35
2016-10-24T04:41:19.477Z,20.44
2016-10-24T04:42:19.765Z,20.44
2016-10-24T04:43:19.744Z,20.41
2016-10-24T04:44:19.741Z,20.44
2016-10-24T04:45:19.719Z,20.46
2016-10-24T04:46:19.690Z,20.5
2016-10-24T04:47:19.681Z,20.51
2016-10-24T04:48:19.350Z,20.54
2016-10-24T04:49:19.655Z,20.5
2016-10-24T04:50:19.640Z,20.53
2016-10-24T04:51:19.616Z,20.48
2016-10-24T04:52:19.601Z,20.44
2016-10-24T04:53:19.598Z,20.46
2016-10-24T04:54:19.600Z,20.6
2016-10-24T04:55:19.555Z,20.57
2016-10-24T04:56:19.225Z,20.6
2016-10-24T04:57:19.525Z,20.58
2016-10-24T04:58:19.499Z,20.63
2016-10-24T04:59:19.484Z,20.57
2016-10-24T05:00:19.473Z,20.6
2016-10-24T05:01:19.135Z,20.57
2016-10-24T05:02:19.446Z,20.58
2016-10-24T05:03:19.419Z,20.68
2016-10-24T05:04:19.088Z,20.63
2016-10-24T05:05:19.396Z,20.64
2016-10-24T05:06:19.377Z,20.69
2016-10-24T05:07:19.041Z,20.66
2016-10-24T05:08:19.344Z,20.79
2016-10-24T05:09:18.999Z,20.75
2016-10-24T05:10:19.310Z,20.72
2016-10-24T05:11:19.302Z,20.78
2016-10-24T05:12:19.271Z,20.73
2016-10-24T05:13:19.260Z,20.71
2016-10-24T05:14:19.239Z,20.68
2016-10-24T05:15:18.913Z,20.51
2016-10-24T05:16:18.918Z,20.53
2016-10-24T05:17:18.881Z,20.5
2016-10-24T05:18:19.177Z,20.57
2016-10-24T05:19:19.163Z,20.66
2016-10-24T05:20:19.141Z,20.63
2016-10-24T05:21:19.134Z,20.71
2016-10-24T05:22:19.111Z,20.76
2016-10-24T05:23:18.784Z,20.66
2016-10-24T05:24:19.115Z,20.63
2016-10-24T05:25:18.751Z,20.73
2016-10-24T05:26:19.048Z,20.71
2016-10-24T05:27:19.038Z,20.73
2016-10-24T05:28:19.015Z,20.76
2016-10-24T05:29:18.996Z,20.76
2016-10-24T05:30:18.986Z,20.83
2016-10-24T05:31:18.966Z,20.76
2016-10-24T05:32:18.954Z,20.83
2016-10-24T05:33:18.956Z,20.88
2016-10-24T05:34:18.914Z,20.85
2016-10-24T05:35:18.596Z,20.83
2016-10-24T05:36:18.572Z,20.85
2016-10-24T05:37:18.240Z,20.97
2016-10-24T05:38:18.232Z,20.83
2016-10-24T05:39:18.841Z,20.91
2016-10-24T05:40:18.824Z,20.88
2016-10-24T05:41:18.809Z,20.83
2016-10-24T05:42:18.788Z,20.9
2016-10-24T05:43:18.461Z,20.88
2016-10-24T05:44:18.441Z,20.88
2016-10-24T05:45:18.746Z,20.93
2016-10-24T05:46:18.091Z,20.88
2016-10-24T05:47:18.711Z,20.83
2016-10-24T05:48:18.735Z,20.88
2016-10-24T05:49:18.361Z,20.85
2016-10-24T05:50:18.350Z,20.88
2016-10-24T05:51:18.645Z,20.83
2016-10-24T05:52:18.325Z,20.9
2016-10-24T05:53:18.630Z,20.87
2016-10-24T05:54:18.307Z,20.83
2016-10-24T05:55:18.580Z,20.85
2016-10-24T05:56:18.569Z,20.87
2016-10-24T05:57:18.548Z,20.9
2016-10-24T05:58:18.538Z,20.88
2016-10-24T05:59:18.520Z,20.93
2016-10-24T06:00:18.537Z,20.88
2016-10-24T06:01:18.177Z,20.9
2016-10-24T06:02:18.472Z,20.87
2016-10-24T06:03:18.141Z,20.9
2016-10-24T06:04:18.437Z,20.85
2016-10-24T06:05:18.420Z,20.83
2016-10-24T06:06:18.409Z,20.88
2016-10-24T06:07:18.073Z,20.88
2016-10-24T06:08:18.374Z,20.88
2016-10-24T06:09:18.361Z,20.81
2016-10-24T06:10:18.337Z,20.9
2016-10-24T06:11:18.327Z,20.87
2016-10-24T06:12:17.995Z,20.9
2016-10-24T06:13:18.298Z,20.97
2016-10-24T06:14:18.269Z,20.9
2016-10-24T06:15:18.260Z,20.93
2016-10-24T06:16:18.243Z,20.94
2016-10-24T06:17:18.227Z,20.96
2016-10-24T06:18:18.214Z,20.93
2016-10-24T06:19:17.879Z,21
2016-10-24T06:20:17.869Z,21.03
2016-10-24T06:21:18.160Z,20.83
2016-10-24T06:22:18.161Z,20.82
2016-10-24T06:23:18.134Z,20.96
2016-10-24T06:24:18.131Z,20.94
2016-10-24T06:25:18.099Z,21.01
2016-10-24T06:26:17.778Z,20.98
2016-10-24T06:27:18.093Z,21.08
2016-10-24T06:28:17.740Z,21.12
2016-10-24T06:29:18.045Z,21.15
2016-10-24T06:30:18.019Z,21.08
2016-10-24T06:31:18.008Z,21.09
2016-10-24T06:32:18.012Z,21.08
2016-10-24T06:33:17.978Z,21.06
2016-10-24T06:34:17.969Z,21.05
2016-10-24T06:35:17.942Z,21.11
2016-10-24T06:36:17.935Z,21.11
2016-10-24T06:37:17.914Z,21.06
2016-10-24T06:38:17.904Z,21.11
2016-10-24T06:39:17.883Z,21.08
2016-10-24T06:40:17.551Z,21.03
2016-10-24T06:41:17.859Z,21.03
2016-10-24T06:42:17.832Z,21
2016-10-24T06:43:17.496Z,20.94
2016-10-24T06:44:17.799Z,20.98
2016-10-24T06:45:17.155Z,20.87
2016-10-24T06:46:17.461Z,20.94
2016-10-24T06:47:17.747Z,20.94
2016-10-24T06:48:17.748Z,20.83
2016-10-24T06:49:17.726Z,20.93
2016-10-24T06:50:17.705Z,20.9
2016-10-24T06:51:17.686Z,20.87
2016-10-24T06:52:17.673Z,20.81
2016-10-24T06:53:17.665Z,20.85
2016-10-24T06:54:17.646Z,20.97
2016-10-24T06:55:17.629Z,20.88
2016-10-24T06:56:17.614Z,20.93
2016-10-24T06:57:17.599Z,20.91
2016-10-24T06:58:17.602Z,20.96
2016-10-24T06:59:17.563Z,20.94
2016-10-24T07:00:17.545Z,20.82
2016-10-24T07:01:17.220Z,20.93
2016-10-24T07:02:17.513Z,20.9
2016-10-24T07:03:17.498Z,20.93
2016-10-24T07:04:17.495Z,20.87
2016-10-24T07:05:17.463Z,20.85
2016-10-24T07:06:17.448Z,20.96
2016-10-24T07:07:17.437Z,20.94
2016-10-24T07:08:17.416Z,20.91
2016-10-24T07:09:17.105Z,21.06
2016-10-24T07:10:17.383Z,21
2016-10-24T07:11:17.384Z,20.85
2016-10-24T07:12:17.351Z,20.85
2016-10-24T07:13:17.340Z,20.87
2016-10-24T07:14:17.008Z,20.82
2016-10-24T07:15:16.991Z,20.91
2016-10-24T07:16:17.298Z,20.9
2016-10-24T07:17:17.275Z,20.85
2016-10-24T07:18:17.258Z,20.83
2016-10-24T07:19:17.254Z,20.83
2016-10-24T07:20:17.235Z,20.87
2016-10-24T07:21:16.904Z,20.82
2016-10-24T07:22:16.877Z,21
2016-10-24T07:23:17.176Z,20.83
2016-10-24T07:24:17.175Z,20.87
2016-10-24T07:25:17.150Z,21
2016-10-24T07:26:17.146Z,20.85
2016-10-24T07:27:16.801Z,20.97
2016-10-24T07:28:17.110Z,20.97
2016-10-24T07:29:17.088Z,20.82
2016-10-24T07:30:17.075Z,20.87
2016-10-24T07:31:17.044Z,20.93
2016-10-24T07:32:17.035Z,20.98
2016-10-24T07:33:17.020Z,20.97
2016-10-24T07:34:17.008Z,20.91
2016-10-24T07:35:16.993Z,20.96
2016-10-24T07:36:16.974Z,20.94
2016-10-24T07:37:16.643Z,20.9
2016-10-24T07:38:16.625Z,20.87
2016-10-24T07:39:16.927Z,20.88
2016-10-24T07:40:16.927Z,20.87
2016-10-24T07:41:17.203Z,20.88
2016-10-24T07:42:16.573Z,20.93
2016-10-24T07:43:16.865Z,20.9
2016-10-24T07:44:16.532Z,20.93
2016-10-24T07:45:16.833Z,20.9
2016-10-24T07:46:16.818Z,20.96
2016-10-24T07:47:16.807Z,20.93
2016-10-24T07:48:16.469Z,20.97
2016-10-24T07:49:16.768Z,20.9
2016-10-24T07:50:16.761Z,20.93
2016-10-24T07:51:16.733Z,20.87
2016-10-24T07:52:16.725Z,20.9
2016-10-24T07:53:16.385Z,21.01
2016-10-24T07:54:16.682Z,20.88
2016-10-24T07:55:16.357Z,20.91
2016-10-24T07:56:16.664Z,20.96
2016-10-24T07:57:16.637Z,20.97
2016-10-24T07:58:16.632Z,20.93
2016-10-24T07:59:16.608Z,20.9
2016-10-24T08:00:16.596Z,20.87
2016-10-24T08:01:16.573Z,20.87
2016-10-24T08:02:16.554Z,20.91
2016-10-24T08:03:16.545Z,20.88
2016-10-24T08:04:16.214Z,20.91
2016-10-24T08:05:16.509Z,21
2016-10-24T08:06:16.502Z,20.97
2016-10-24T08:07:16.166Z,20.97
2016-10-24T08:08:16.463Z,21.05
2016-10-24T08:09:16.448Z,20.88
2016-10-24T08:10:16.435Z,20.96
2016-10-24T08:11:16.416Z,20.87
2016-10-24T08:12:16.400Z,20.87
2016-10-24T08:13:16.147Z,20.88
2016-10-24T08:14:16.370Z,20.98
2016-10-24T08:15:16.360Z,20.93
2016-10-24T08:16:16.027Z,20.93
2016-10-24T08:17:16.004Z,20.94
2016-10-24T08:18:15.989Z,21
2016-10-24T08:19:15.977Z,20.97
2016-10-24T08:20:16.281Z,21
2016-10-24T08:21:16.274Z,21.03
2016-10-24T08:22:15.936Z,20.97
2016-10-24T08:23:16.219Z,20.97
2016-10-24T08:24:16.210Z,20.94
2016-10-24T08:25:16.205Z,21
2016-10-24T08:26:16.179Z,21.01
2016-10-24T08:27:15.886Z,20.98
2016-10-24T08:28:15.833Z,20.98
2016-10-24T08:29:16.132Z,20.98
2016-10-24T08:30:16.120Z,21
2016-10-24T08:31:16.101Z,20.96
2016-10-24T08:32:16.088Z,21
2016-10-24T08:33:15.755Z,20.96
2016-10-24T08:34:16.057Z,20.96
2016-10-24T08:35:16.042Z,20.94
2016-10-24T08:36:16.021Z,20.96
2016-10-24T08:37:15.998Z,21.05
2016-10-24T08:38:15.671Z,20.96
2016-10-24T08:39:15.981Z,20.96
2016-10-24T08:40:15.649Z,20.96
2016-10-24T08:41:15.951Z,20.93
2016-10-24T08:42:15.616Z,20.93
2016-10-24T08:43:15.909Z,20.93
2016-10-24T08:44:15.578Z,21
2016-10-24T08:45:15.249Z,20.96
2016-10-24T08:46:15.867Z,20.96
2016-10-24T08:47:15.849Z,20.96
2016-10-24T08:48:15.528Z,21.05
2016-10-24T08:49:15.819Z,20.98
2016-10-24T08:50:15.810Z,20.96
2016-10-24T08:51:15.470Z,20.98
2016-10-24T08:52:15.772Z,21.05
2016-10-24T08:53:15.442Z,21.05
2016-10-24T08:54:15.423Z,20.97
2016-10-24T08:55:15.720Z,20.97
2016-10-24T08:56:15.701Z,21
2016-10-24T08:57:15.375Z,20.94
2016-10-24T08:58:15.699Z,21.01
2016-10-24T08:59:15.347Z,21.01
2016-10-24T09:00:15.640Z,21
2016-10-24T09:01:15.627Z,20.96
2016-10-24T09:02:15.287Z,21
2016-10-24T09:03:15.598Z,21.03
2016-10-24T09:04:15.577Z,21.05
2016-10-24T09:05:15.262Z,21
2016-10-24T09:06:15.242Z,21.01
2016-10-24T09:07:15.219Z,20.98
2016-10-24T09:08:14.880Z,20.98
2016-10-24T09:09:14.866Z,21.05
2016-10-24T09:10:15.168Z,20.98
2016-10-24T09:11:15.470Z,21
2016-10-24T09:12:15.453Z,21.01
2016-10-24T09:13:15.434Z,21.05
2016-10-24T09:14:15.104Z,21.01
2016-10-24T09:15:15.407Z,21
2016-10-24T09:16:15.384Z,20.97
2016-10-24T09:17:15.370Z,20.98
2016-10-24T09:18:15.354Z,21.06
2016-10-24T09:19:15.356Z,20.96
2016-10-24T09:20:15.349Z,21
2016-10-24T09:21:15.314Z,21.05
2016-10-24T09:22:15.289Z,21.01
2016-10-24T09:23:15.294Z,21.01
2016-10-24T09:24:14.636Z,21.01
2016-10-24T09:25:15.249Z,20.97
2016-10-24T09:26:15.230Z,20.98
2016-10-24T09:27:14.897Z,21.01
2016-10-24T09:28:15.196Z,21
2016-10-24T09:29:14.868Z,21.01
2016-10-24T09:30:15.159Z,21
2016-10-24T09:31:15.156Z,21.01
2016-10-24T09:32:15.139Z,21.01
2016-10-24T09:33:15.119Z,21.05
2016-10-24T09:34:15.104Z,21.01
2016-10-24T09:35:14.451Z,21
2016-10-24T09:36:15.070Z,21.05
2016-10-24T09:37:14.737Z,21.01
2016-10-24T09:38:15.040Z,21.05
2016-10-24T09:39:15.020Z,21.01
2016-10-24T09:40:15.005Z,20.96
2016-10-24T09:41:14.361Z,21.05
2016-10-24T09:42:14.964Z,20.98
2016-10-24T09:43:14.639Z,21.01
2016-10-24T09:44:14.949Z,21.01
2016-10-24T09:45:14.621Z,21.05
2016-10-24T09:46:14.600Z,21
2016-10-24T09:47:14.897Z,20.98
2016-10-24T09:48:14.561Z,21.09
2016-10-24T09:49:14.550Z,21.06
2016-10-24T09:50:14.855Z,21.08
2016-10-24T09:51:14.511Z,21.08
2016-10-24T09:52:14.812Z,21.03
2016-10-24T09:53:14.808Z,21.08
2016-10-24T09:54:14.795Z,21.05
2016-10-24T09:55:14.458Z,20.97
2016-10-24T09:56:14.754Z,21
2016-10-24T09:57:14.735Z,21.05
2016-10-24T09:58:14.712Z,20.97
2016-10-24T09:59:14.708Z,21.05
2016-10-24T10:00:14.374Z,21.05
2016-10-24T10:01:14.666Z,21.01
2016-10-24T10:02:14.648Z,21.01
2016-10-24T10:03:14.329Z,21.05
2016-10-24T10:04:14.625Z,20.98
2016-10-24T10:05:14.606Z,21.01
2016-10-24T10:06:14.272Z,21.05
2016-10-24T10:07:14.580Z,21.01
2016-10-24T10:08:14.569Z,20.98
2016-10-24T10:09:14.542Z,21.01
2016-10-24T10:10:14.533Z,21
2016-10-24T10:11:14.192Z,21.03
2016-10-24T10:12:14.507Z,21.01
2016-10-24T10:13:14.489Z,21.01
2016-10-24T10:14:14.466Z,21.05
2016-10-24T10:15:14.133Z,21.05
2016-10-24T10:16:14.435Z,21.06
2016-10-24T10:17:14.114Z,21.08
2016-10-24T10:18:14.410Z,21.06
2016-10-24T10:19:14.083Z,21.06
2016-10-24T10:20:14.384Z,21.06
2016-10-24T10:21:14.039Z,21.06
2016-10-24T10:22:14.023Z,21.01
2016-10-24T10:23:14.326Z,21.06
2016-10-24T10:24:14.311Z,21.09
2016-10-24T10:25:13.972Z,21.13
2016-10-24T10:26:13.952Z,21
2016-10-24T10:27:14.263Z,20.98
2016-10-24T10:28:14.244Z,21.05
2016-10-24T10:29:14.234Z,20.98
2016-10-24T10:30:13.587Z,21.01
2016-10-24T10:31:13.882Z,21.08
2016-10-24T10:32:14.179Z,20.98
2016-10-24T10:33:14.165Z,21.05
2016-10-24T10:34:13.824Z,21.01
2016-10-24T10:35:14.134Z,21.01
2016-10-24T10:36:14.117Z,20.97
2016-10-24T10:37:14.101Z,20.98
2016-10-24T10:38:14.079Z,20.98
2016-10-24T10:39:14.072Z,21.01
2016-10-24T10:40:14.076Z,21.03
2016-10-24T10:41:14.039Z,21.01
2016-10-24T10:42:13.718Z,21.03
2016-10-24T10:43:13.996Z,21.05
2016-10-24T10:44:13.675Z,21
2016-10-24T10:45:13.976Z,21.06
2016-10-24T10:46:13.949Z,21.06
2016-10-24T10:47:13.941Z,21
2016-10-24T10:48:13.929Z,21.05
2016-10-24T10:49:13.915Z,21.01
2016-10-24T10:50:13.900Z,20.96
2016-10-24T10:51:13.875Z,21.08
2016-10-24T10:52:13.864Z,21.06
2016-10-24T10:53:13.528Z,21.03
2016-10-24T10:54:13.825Z,21.06
2016-10-24T10:55:13.810Z,21.05
2016-10-24T10:56:13.798Z,21.01
2016-10-24T10:57:13.157Z,20.96
2016-10-24T10:58:13.448Z,21
2016-10-24T10:59:13.757Z,20.98
2016-10-24T11:00:13.736Z,21.05
2016-10-24T11:01:13.717Z,21
2016-10-24T11:02:13.707Z,20.98
2016-10-24T11:03:13.690Z,20.96
2016-10-24T11:04:13.674Z,21.05
2016-10-24T11:05:13.653Z,21.01
2016-10-24T11:06:13.642Z,21.01
2016-10-24T11:07:13.637Z,21.08
2016-10-24T11:08:13.294Z,20.97
2016-10-24T11:09:12.956Z,21
2016-10-24T11:10:13.265Z,20.98
2016-10-24T11:11:13.558Z,21.05
2016-10-24T11:12:13.556Z,21.11
2016-10-24T11:13:13.529Z,21.03
2016-10-24T11:14:13.198Z,21.11
2016-10-24T11:15:13.501Z,21.06
2016-10-24T11:16:13.167Z,21.13
2016-10-24T11:17:13.466Z,21.05
2016-10-24T11:18:13.453Z,21.15
2016-10-24T11:19:13.435Z,21.11
2016-10-24T11:20:13.421Z,21.06
2016-10-24T11:21:13.086Z,21.09
2016-10-24T11:22:13.071Z,21.11
2016-10-24T11:23:13.368Z,21.09
2016-10-24T11:24:13.042Z,21.03
2016-10-24T11:25:13.337Z,21.09
2016-10-24T11:26:13.330Z,21.05
2016-10-24T11:27:13.313Z,21.08
2016-10-24T11:28:12.668Z,21.08
2016-10-24T11:29:13.277Z,21.06
2016-10-24T11:30:12.947Z,21.06
2016-10-24T11:31:12.926Z,21.05
2016-10-24T11:32:13.229Z,21.03
2016-10-24T11:33:13.224Z,21
2016-10-24T11:34:13.193Z,21.01
2016-10-24T11:35:13.184Z,20.97
2016-10-24T11:36:12.851Z,21.05
2016-10-24T11:37:12.835Z,21.05
2016-10-24T11:38:13.133Z,20.98
2016-10-24T11:39:13.133Z,21.05
2016-10-24T11:40:13.105Z,21.08
2016-10-24T11:41:13.085Z,21.06
2016-10-24T11:42:12.754Z,21.01
2016-10-24T11:43:13.062Z,21.01
2016-10-24T11:44:13.045Z,21.06
2016-10-24T11:45:13.026Z,21.11
2016-10-24T11:46:12.693Z,21.05
2016-10-24T11:47:13.000Z,21.01
2016-10-24T11:48:12.989Z,21
2016-10-24T11:49:12.959Z,21.03
2016-10-24T11:50:12.944Z,21
2016-10-24T11:51:12.923Z,21.06
2016-10-24T11:52:12.938Z,20.94
2016-10-24T11:53:12.931Z,21.05
2016-10-24T11:54:12.933Z,20.98
2016-10-24T11:55:12.882Z,21.03
2016-10-24T11:56:12.540Z,20.97
2016-10-24T11:57:12.528Z,21.01
2016-10-24T11:58:12.825Z,20.97
2016-10-24T11:59:12.807Z,21
2016-10-24T12:00:12.162Z,20.98
2016-10-24T12:01:12.774Z,20.97
2016-10-24T12:02:12.764Z,21.01
2016-10-24T12:03:12.777Z,21.05
2016-10-24T12:04:12.416Z,20.98
2016-10-24T12:05:12.084Z,21
2016-10-24T12:06:12.689Z,20.97
2016-10-24T12:07:12.048Z,20.98
2016-10-24T12:08:12.661Z,21
2016-10-24T12:09:12.648Z,20.98
2016-10-24T12:10:11.996Z,21.01
2016-10-24T12:11:12.621Z,21.03
2016-10-24T12:12:12.306Z,20.98
2016-10-24T12:13:12.587Z,21.05
2016-10-24T12:14:12.564Z,21.06
2016-10-24T12:15:11.925Z,21.01
2016-10-24T12:16:11.901Z,21.08
2016-10-24T12:17:11.890Z,21.06
2016-10-24T12:18:12.189Z,21.03
2016-10-24T12:19:12.172Z,21.05
2016-10-24T12:20:12.166Z,21.03
2016-10-24T12:21:12.454Z,21.06
2016-10-24T12:22:12.458Z,21.01
2016-10-24T12:23:11.795Z,21.01
2016-10-24T12:24:12.410Z,21.05
2016-10-24T12:25:12.081Z,21.12
2016-10-24T12:26:12.376Z,21.13
2016-10-24T12:27:12.357Z,21.15
2016-10-24T12:28:12.342Z,21.12
2016-10-24T12:29:12.326Z,21.16
2016-10-24T12:30:12.315Z,21.12
2016-10-24T12:31:12.298Z,21.18
2016-10-24T12:32:11.965Z,21.19
2016-10-24T12:33:12.272Z,21.16
2016-10-24T12:34:12.260Z,21.08
2016-10-24T12:35:11.926Z,21.11
2016-10-24T12:36:11.902Z,21.11
2016-10-24T12:37:11.888Z,21.11
2016-10-24T12:38:11.878Z,21.06
2016-10-24T12:39:12.171Z,21.11
2016-10-24T12:40:12.166Z,21.11
2016-10-24T12:41:12.150Z,21.06
2016-10-24T12:42:12.123Z,20.96
2016-10-24T12:43:11.796Z,20.94
2016-10-24T12:44:12.093Z,21.05
2016-10-24T12:45:12.072Z,20.98
2016-10-24T12:46:11.749Z,21.03
2016-10-24T12:47:12.074Z,20.98
2016-10-24T12:48:12.034Z,21.01
2016-10-24T12:49:11.705Z,20.98
2016-10-24T12:50:12.008Z,20.98
2016-10-24T12:51:11.673Z,21.05
2016-10-24T12:52:11.972Z,21.09
2016-10-24T12:53:11.961Z,21.11
2016-10-24T12:54:11.627Z,21.11
2016-10-24T12:55:11.933Z,21.06
2016-10-24T12:56:11.909Z,21.08
2016-10-24T12:57:11.890Z,21.08